Containerships 6 — DABH — position and weather

sailwx.info

Track history (hours):
 
Tides and Currents Weather Stations Pressure Air Temp Water Temp Dewpoint Dewpoint Depression Visibility Wind Speed Wind Dir Waves Ship Positions

Containerships 6

Last reported at 2014-Aug-27 19:33 UTC. Time now 2014-Aug-28 03:25 UTC.
Position N 54°41' W 001°07'.

Length 155 m; beam 21.8 m; draft 8.9 m.

Type: Ship (hazmat cat A). MMSI: 211315096.

Date/timePositionNaut miles runAvg speedWind from/ knotsBaromVisibWave heightAir tempDewpointWater temp
2014-Aug-27 19:33N 54°41' W 001°07'2317.1
2014-Aug-27 18:13N 54°51' W 000°32'1418.2
2014-Aug-27 17:27N 54°58' W 000°10'2318.4
2014-Aug-27 16:13N 55°08' E 000°26'29118.4
2014-Aug-27 00:23N 57°18' E 008°12'1718.3
2014-Aug-26 23:27N 57°26' E 008°41'1818.4
2014-Aug-26 22:30N 57°34' E 009°10'1918.1
2014-Aug-26 21:28N 57°41' E 009°42'1719.0
2014-Aug-26 20:33N 57°46' E 010°13'1817.8
2014-Aug-26 19:33N 57°48' E 010°46'1818.4
2014-Aug-26 18:33N 57°36' E 011°11'1817.6
2014-Aug-26 17:33N 57°22' E 011°32'1817.6
2014-Aug-26 16:33N 57°05' E 011°41'15913.8
2014-Aug-26 05:03N 54°27' E 012°06'815.8
2014-Aug-26 04:33N 54°33' E 012°14'1817.7
2014-Aug-26 03:33N 54°45' E 012°36'1918.6
2014-Aug-26 02:33N 54°53' E 013°06'1918.6
2014-Aug-26 01:34N 54°59' E 013°36'2317.6
2014-Aug-26 00:14N 55°10' E 014°12'1218.3
2014-Aug-25 23:33N 55°20' E 014°25'1818.1
2014-Aug-25 22:33N 55°31' E 014°50'357 8.6
2014-Aug-24 05:07N 59°34' E 022°58'1118.7
2014-Aug-24 04:31N 59°37' E 023°19'1818.3
2014-Aug-24 03:33N 59°42' E 023°52'4117.8
2014-Aug-24 01:14N 60°01' E 025°06'68 1.6
2014-Aug-22 05:15N 60°03' E 027°23'1817.8
2014-Aug-22 04:15N 59°59' E 026°48'1318.2
2014-Aug-22 03:32N 59°57' E 026°22'5618.9
2014-Aug-22 00:33N 59°45' E 024°33'2018.8
2014-Aug-21 23:29N 59°39' E 023°54'1818.6
2014-Aug-21 22:32N 59°33' E 023°22'306 7.8
2014-Aug-20 07:15N 55°59' E 016°32'2018.3
2014-Aug-20 06:09N 55°49' E 016°01'1118.6
2014-Aug-20 05:33N 55°44' E 015°44'2818.8
2014-Aug-20 04:04N 55°30' E 015°00'1018.8
2014-Aug-20 03:33N 55°26' E 014°45'1818.0
2014-Aug-20 02:33N 55°13' E 014°23'2117.5
2014-Aug-20 01:20N 54°59' E 013°55'1418.1
2014-Aug-20 00:33N 54°54' E 013°32'1918.2
2014-Aug-19 23:31N 54°48' E 013°01'1717.9
2014-Aug-19 22:33N 54°41' E 012°34'1717.4
2014-Aug-19 21:33N 54°28' E 012°14'9510.5
2014-Aug-19 12:33N 54°12' E 009°34'8 8.1
2014-Aug-19 11:33N 54°09' E 009°22'7 7.2
2014-Aug-19 10:33N 54°02' E 009°18'6 6.1
2014-Aug-19 09:33N 53°57' E 009°14'4 4.1
2014-Aug-19 08:33N 53°54' E 009°09'5 5.5
2014-Aug-19 07:33N 53°51' E 009°00'1414.4
2014-Aug-19 06:33N 53°57' E 008°38'1716.9
2014-Aug-19 05:33N 53°59' E 008°09'7017.3
2014-Aug-19 01:30N 53°43' E 006°14'1818.5
2014-Aug-19 00:33N 53°37' E 005°46'1918.7
2014-Aug-18 23:34N 53°32' E 005°16'1918.8
2014-Aug-18 22:34N 53°25' E 004°46'1918.3
2014-Aug-18 21:30N 53°09' E 004°29'1818.7
2014-Aug-18 20:33N 52°53' E 004°16'1413.6
2014-Aug-18 19:33N 52°41' E 004°05'1818.3
2014-Aug-18 18:33N 52°24' E 003°53'1817.6
2014-Aug-18 17:33N 52°07' E 003°55'1211.6
2014-Aug-18 16:33N 51°58' E 004°08'1110.5
2014-Aug-18 15:33N 51°54' E 004°24'1 1.4
2014-Aug-18 14:33N 51°53' E 004°25'0 0.0
2014-Aug-18 13:33N 51°53' E 004°25'0 0.0
2014-Aug-18 12:33N 51°53' E 004°25'0 0.0
2014-Aug-18 11:33N 51°53' E 004°25'0 0.0
2014-Aug-18 10:33N 51°53' E 004°25'0 0.0
2014-Aug-18 09:33N 51°53' E 004°25'0 0.0
2014-Aug-18 08:33N 51°53' E 004°25'0 0.0
2014-Aug-18 07:33N 51°53' E 004°25'0 0.0
2014-Aug-18 06:33N 51°53' E 004°25'0 0.0
2014-Aug-18 05:33N 51°53' E 004°25'0 0.0
2014-Aug-18 04:33N 51°53' E 004°25'0 0.0
2014-Aug-18 03:33N 51°53' E 004°25'0 0.0
2014-Aug-18 02:33N 51°53' E 004°25'0 0.0
2014-Aug-18 01:33N 51°53' E 004°25'0 0.0
2014-Aug-18 00:33N 51°53' E 004°25'  
Track history (hours):
 
Tides and Currents Weather Stations Pressure Air Temp Water Temp Dewpoint Dewpoint Depression Visibility Wind Speed Wind Dir Waves Ship Positions

Containerships 6

Last reported at 2014-Aug-27 19:33 UTC. Time now 2014-Aug-28 03:25 UTC.
Position N 54°41' W 001°07'.

Length 155 m; beam 21.8 m; draft 8.9 m.

Type: Ship (hazmat cat A). MMSI: 211315096.

Date/timePositionNaut miles runAvg speedWind from/ knotsBaromVisibWave heightAir tempDewpointWater temp
2014-Aug-27 19:33N 54°41' W 001°07'2317.1
2014-Aug-27 18:13N 54°51' W 000°32'1418.2
2014-Aug-27 17:27N 54°58' W 000°10'2318.4
2014-Aug-27 16:13N 55°08' E 000°26'29118.4
2014-Aug-27 00:23N 57°18' E 008°12'1718.3
2014-Aug-26 23:27N 57°26' E 008°41'1818.4
2014-Aug-26 22:30N 57°34' E 009°10'1918.1
2014-Aug-26 21:28N 57°41' E 009°42'1719.0
2014-Aug-26 20:33N 57°46' E 010°13'1817.8
2014-Aug-26 19:33N 57°48' E 010°46'1818.4
2014-Aug-26 18:33N 57°36' E 011°11'1817.6
2014-Aug-26 17:33N 57°22' E 011°32'1817.6
2014-Aug-26 16:33N 57°05' E 011°41'15913.8
2014-Aug-26 05:03N 54°27' E 012°06'815.8
2014-Aug-26 04:33N 54°33' E 012°14'1817.7
2014-Aug-26 03:33N 54°45' E 012°36'1918.6
2014-Aug-26 02:33N 54°53' E 013°06'1918.6
2014-Aug-26 01:34N 54°59' E 013°36'2317.6
2014-Aug-26 00:14N 55°10' E 014°12'1218.3
2014-Aug-25 23:33N 55°20' E 014°25'1818.1
2014-Aug-25 22:33N 55°31' E 014°50'357 8.6
2014-Aug-24 05:07N 59°34' E 022°58'1118.7
2014-Aug-24 04:31N 59°37' E 023°19'1818.3
2014-Aug-24 03:33N 59°42' E 023°52'4117.8
2014-Aug-24 01:14N 60°01' E 025°06'68 1.6
2014-Aug-22 05:15N 60°03' E 027°23'1817.8
2014-Aug-22 04:15N 59°59' E 026°48'1318.2
2014-Aug-22 03:32N 59°57' E 026°22'5618.9
2014-Aug-22 00:33N 59°45' E 024°33'2018.8
2014-Aug-21 23:29N 59°39' E 023°54'1818.6
2014-Aug-21 22:32N 59°33' E 023°22'306 7.8
2014-Aug-20 07:15N 55°59' E 016°32'2018.3
2014-Aug-20 06:09N 55°49' E 016°01'1118.6
2014-Aug-20 05:33N 55°44' E 015°44'2818.8
2014-Aug-20 04:04N 55°30' E 015°00'1018.8
2014-Aug-20 03:33N 55°26' E 014°45'1818.0
2014-Aug-20 02:33N 55°13' E 014°23'2117.5
2014-Aug-20 01:20N 54°59' E 013°55'1418.1
2014-Aug-20 00:33N 54°54' E 013°32'1918.2
2014-Aug-19 23:31N 54°48' E 013°01'1717.9
2014-Aug-19 22:33N 54°41' E 012°34'1717.4
2014-Aug-19 21:33N 54°28' E 012°14'9510.5
2014-Aug-19 12:33N 54°12' E 009°34'8 8.1
2014-Aug-19 11:33N 54°09' E 009°22'7 7.2
2014-Aug-19 10:33N 54°02' E 009°18'6 6.1
2014-Aug-19 09:33N 53°57' E 009°14'4 4.1
2014-Aug-19 08:33N 53°54' E 009°09'5 5.5
2014-Aug-19 07:33N 53°51' E 009°00'1414.4
2014-Aug-19 06:33N 53°57' E 008°38'1716.9
2014-Aug-19 05:33N 53°59' E 008°09'7017.3
2014-Aug-19 01:30N 53°43' E 006°14'1818.5
2014-Aug-19 00:33N 53°37' E 005°46'1918.7
2014-Aug-18 23:34N 53°32' E 005°16'1918.8
2014-Aug-18 22:34N 53°25' E 004°46'1918.3
2014-Aug-18 21:30N 53°09' E 004°29'1818.7
2014-Aug-18 20:33N 52°53' E 004°16'1413.6
2014-Aug-18 19:33N 52°41' E 004°05'1818.3
2014-Aug-18 18:33N 52°24' E 003°53'1817.6
2014-Aug-18 17:33N 52°07' E 003°55'1211.6
2014-Aug-18 16:33N 51°58' E 004°08'1110.5
2014-Aug-18 15:33N 51°54' E 004°24'1 1.4
2014-Aug-18 14:33N 51°53' E 004°25'0 0.0
2014-Aug-18 13:33N 51°53' E 004°25'0 0.0
2014-Aug-18 12:33N 51°53' E 004°25'0 0.0
2014-Aug-18 11:33N 51°53' E 004°25'0 0.0
2014-Aug-18 10:33N 51°53' E 004°25'0 0.0
2014-Aug-18 09:33N 51°53' E 004°25'0 0.0
2014-Aug-18 08:33N 51°53' E 004°25'0 0.0
2014-Aug-18 07:33N 51°53' E 004°25'0 0.0
2014-Aug-18 06:33N 51°53' E 004°25'0 0.0
2014-Aug-18 05:33N 51°53' E 004°25'0 0.0
2014-Aug-18 04:33N 51°53' E 004°25'0 0.0
2014-Aug-18 03:33N 51°53' E 004°25'0 0.0
2014-Aug-18 02:33N 51°53' E 004°25'0 0.0
2014-Aug-18 01:33N 51°53' E 004°25'0 0.0
2014-Aug-18 00:33N 51°53' E 004°25'  

Dump ship's entire track history